Time;durP1;ratioP1;P1;durP2;ratioP2;P2;SDS_P1;SDS_P2;PMS_P1;PMS_P2;Temp;Humidity;BMP_temperature;BMP_pressure;BME280_temperature;BME280_humidity;BME280_pressure;Samples;Min_cycle;Max_cycle;Signal;HPM_P1;HPM_P2
2022/10/09 00:03:31;;;;;;;0.63;0.30;;;18.50;52.00;20.60;94485.00;;;;10468403;28;45289;-59
2022/10/09 00:08:53;;;;;;;0.70;0.30;;;18.50;52.00;20.60;94488.00;;;;10467145;28;45256;-59
2022/10/09 00:14:14;;;;;;;0.30;0.15;;;18.50;52.00;20.60;94468.00;;;;10474574;28;45699;-60
2022/10/09 00:19:34;;;;;;;0.85;0.20;;;18.50;52.00;20.60;94469.00;;;;10475270;28;45851;-58
2022/10/09 00:24:56;;;;;;;0.65;0.52;;;18.50;51.90;20.60;94461.00;;;;10475103;28;45771;-58
2022/10/09 00:30:17;;;;;;;0.20;0.20;;;18.50;51.90;20.60;94442.00;;;;10475167;28;45296;-59
2022/10/09 00:35:38;;;;;;;0.43;0.22;;;18.50;51.90;20.60;94444.00;;;;10475114;28;45217;-59
2022/10/09 00:41:00;;;;;;;0.30;0.17;;;18.50;52.00;20.60;94448.00;;;;10467593;28;45674;-58
2022/10/09 00:46:28;;;;;;;0.38;0.25;;;18.50;51.90;20.60;94444.00;;;;10470469;28;45208;-58
2022/10/09 00:51:51;;;;;;;0.52;0.20;;;18.50;51.90;20.60;94444.00;;;;10474385;28;45292;-59
2022/10/09 00:57:14;;;;;;;0.38;0.20;;;18.50;51.90;20.60;94441.00;;;;10474236;28;45225;-61
2022/10/09 01:02:35;;;;;;;0.10;0.10;;;18.50;51.90;20.60;94438.00;;;;10469612;28;45189;-59
2022/10/09 01:08:05;;;;;;;0.57;0.17;;;18.50;51.90;20.60;94426.00;;;;10471405;28;45240;-60
2022/10/09 01:13:34;;;;;;;0.52;0.30;;;18.50;51.90;20.60;94417.00;;;;10473705;28;45164;-59
2022/10/09 01:19:01;;;;;;;0.30;0.20;;;18.50;51.90;20.60;94407.00;;;;10473293;28;45257;-59
2022/10/09 01:24:29;;;;;;;0.50;0.20;;;18.50;51.90;20.60;94415.00;;;;10473955;28;45674;-58
2022/10/09 01:29:56;;;;;;;0.57;0.20;;;18.50;51.90;20.50;94407.00;;;;10472816;28;45155;-60
2022/10/09 01:35:18;;;;;;;0.10;0.10;;;18.50;51.90;20.60;94404.00;;;;10472937;28;45766;-58
2022/10/09 01:40:39;;;;;;;0.20;0.20;;;18.50;51.90;20.50;94386.00;;;;10457442;28;45368;-61
2022/10/09 01:46:24;;;;;;;0.40;0.13;;;18.50;51.90;20.50;94389.00;;;;10471293;28;45158;-60
2022/10/09 01:51:51;;;;;;;0.35;0.20;;;18.50;51.90;20.50;94387.00;;;;10472612;28;45207;-59
2022/10/09 01:57:19;;;;;;;0.60;0.13;;;18.50;51.90;20.50;94358.00;;;;10471859;28;45710;-59
2022/10/09 02:02:42;;;;;;;0.10;0.10;;;18.40;51.90;20.50;94360.00;;;;10472080;28;45341;-59
2022/10/09 02:08:03;;;;;;;0.68;0.10;;;18.50;51.90;20.50;94363.00;;;;10471150;28;45734;-60
2022/10/09 02:13:24;;;;;;;2.38;0.20;;;18.40;51.80;20.50;94356.00;;;;10472048;28;45185;-59
2022/10/09 02:18:50;;;;;;;0.63;0.20;;;18.40;51.80;20.50;94349.00;;;;10470998;28;45163;-59
2022/10/09 02:24:17;;;;;;;0.17;0.10;;;18.40;51.80;20.50;94353.00;;;;10471811;28;45778;-60
2022/10/09 02:29:40;;;;;;;0.55;0.20;;;18.40;51.80;20.50;94347.00;;;;10471484;28;45235;-60
2022/10/09 02:35:02;;;;;;;0.40;0.20;;;18.40;51.90;20.50;94336.00;;;;10470211;28;45200;-60
2022/10/09 02:40:22;;;;;;;0.60;0.20;;;18.40;51.80;20.50;94339.00;;;;10455829;28;45240;-60
2022/10/09 02:45:43;;;;;;;0.88;0.20;;;18.40;51.80;20.50;94330.00;;;;10465966;28;45187;-61
2022/10/09 02:51:05;;;;;;;0.63;0.20;;;18.40;51.80;20.50;94332.00;;;;10471092;28;45233;-62
2022/10/09 02:56:26;;;;;;;0.28;0.10;;;18.40;51.80;20.50;94329.00;;;;10470719;28;45182;-61
2022/10/09 03:01:47;;;;;;;0.30;0.20;;;18.40;51.80;20.50;94324.00;;;;10453549;28;45263;-58
2022/10/09 03:07:09;;;;;;;0.22;0.20;;;18.40;51.80;20.40;94321.00;;;;10427147;28;45340;-60
2022/10/09 03:12:29;;;;;;;0.43;0.30;;;18.40;51.80;20.40;94317.00;;;;10428169;28;45097;-58
2022/10/09 03:17:50;;;;;;;0.40;0.15;;;18.40;51.80;20.40;94299.00;;;;10458520;28;45692;-61
2022/10/09 03:23:12;;;;;;;0.30;0.25;;;18.40;51.70;20.50;94312.00;;;;10437431;28;45317;-61
2022/10/09 03:28:36;;;;;;;0.73;0.22;;;18.40;51.70;20.40;94312.00;;;;10427415;28;45190;-58
2022/10/09 03:33:57;;;;;;;0.30;0.10;;;18.40;51.70;20.40;94312.00;;;;10428732;28;45873;-60
2022/10/09 03:39:19;;;;;;;0.43;0.10;;;18.30;51.70;20.40;94319.00;;;;10465235;28;45691;-58
2022/10/09 03:44:40;;;;;;;0.63;0.20;;;18.30;51.70;20.40;94315.00;;;;10469193;28;45285;-59
2022/10/09 03:50:00;;;;;;;0.10;0.10;;;18.30;51.70;20.40;94320.00;;;;10476013;28;45684;-59
2022/10/09 03:55:22;;;;;;;0.40;0.10;;;18.30;51.70;20.40;94321.00;;;;10476644;28;45226;-61
2022/10/09 04:00:44;;;;;;;0.93;0.20;;;18.40;51.70;20.40;94303.00;;;;10476883;28;45370;-60
2022/10/09 04:06:05;;;;;;;0.32;0.10;;;18.30;51.70;20.40;94300.00;;;;10474964;28;45244;-59
2022/10/09 04:11:27;;;;;;;0.20;0.10;;;18.30;51.60;20.40;94314.00;;;;10464693;28;45145;-60
2022/10/09 04:16:48;;;;;;;0.57;0.17;;;18.30;51.50;20.40;94305.00;;;;10463202;28;45169;-60
2022/10/09 04:22:08;;;;;;;0.25;0.20;;;18.30;51.40;20.40;94305.00;;;;10450871;28;45897;-60
2022/10/09 04:27:30;;;;;;;0.08;0.08;;;18.30;51.30;20.40;94309.00;;;;10462184;28;45265;-61
2022/10/09 04:32:50;;;;;;;0.22;0.10;;;18.30;51.20;20.40;94300.00;;;;10474673;28;45764;-61
2022/10/09 04:38:12;;;;;;;0.20;0.20;;;18.30;51.10;20.40;94291.00;;;;10474453;28;45228;-60
2022/10/09 04:43:35;;;;;;;0.55;0.10;;;18.30;51.20;20.50;94302.00;;;;10450877;28;45252;-59
2022/10/09 04:48:55;;;;;;;0.20;0.10;;;18.30;51.20;20.40;94297.00;;;;10468205;28;45169;-60
2022/10/09 04:54:16;;;;;;;0.25;0.10;;;18.30;51.10;20.40;94301.00;;;;10468510;28;45242;-60
2022/10/09 04:59:38;;;;;;;0.77;0.10;;;18.30;51.00;20.40;94288.00;;;;10466661;28;45492;-60
2022/10/09 05:04:58;;;;;;;0.43;0.20;;;18.30;51.10;20.50;94299.00;;;;10470153;28;45839;-59
2022/10/09 05:10:19;;;;;;;2.05;0.13;;;18.30;51.00;20.40;94293.00;;;;10472050;28;45122;-60
2022/10/09 05:15:41;;;;;;;0.00;0.00;;;18.30;51.00;20.50;94297.00;;;;10471396;28;45234;-61
2022/10/09 05:21:04;;;;;;;0.20;0.10;;;18.30;51.10;20.40;94297.00;;;;10467400;28;45255;-61
2022/10/09 05:26:26;;;;;;;0.32;0.20;;;18.30;51.10;20.50;94292.00;;;;10469932;28;45154;-59
2022/10/09 05:31:48;;;;;;;0.70;0.20;;;18.30;51.10;20.50;94295.00;;;;10444892;28;45710;-59
2022/10/09 05:37:09;;;;;;;0.32;0.13;;;18.30;51.10;20.50;94290.00;;;;10448258;28;47134;-61
2022/10/09 05:42:27;;;;;;;0.95;0.20;;;18.30;51.00;20.50;94298.00;;;;10594246;27;45211;-59
2022/10/09 05:47:48;;;;;;;0.47;0.20;;;18.30;51.10;20.50;94303.00;;;;10589647;27;45804;-59
2022/10/09 05:53:08;;;;;;;0.40;0.20;;;18.30;51.00;20.50;94299.00;;;;10583709;27;45137;-60
2022/10/09 05:58:30;;;;;;;0.40;0.22;;;18.30;51.10;20.50;94301.00;;;;10546362;27;45231;-58
2022/10/09 06:03:53;;;;;;;0.55;0.15;;;18.30;51.10;20.50;94304.00;;;;10547096;27;45145;-60
2022/10/09 06:09:15;;;;;;;0.55;0.10;;;18.30;51.10;20.50;94289.00;;;;10546080;27;45812;-58
2022/10/09 06:14:37;;;;;;;0.35;0.13;;;18.30;51.10;20.50;94300.00;;;;10545359;27;45808;-58
2022/10/09 06:19:58;;;;;;;0.57;0.15;;;18.30;51.10;20.50;94293.00;;;;10535361;27;45543;-59
2022/10/09 06:25:18;;;;;;;0.35;0.15;;;18.30;51.10;20.50;94302.00;;;;10580938;27;45276;-59
2022/10/09 06:30:40;;;;;;;0.63;0.15;;;18.30;51.10;20.50;94297.00;;;;10587530;27;45168;-58
2022/10/09 06:36:01;;;;;;;0.43;0.20;;;18.30;51.00;20.50;94295.00;;;;10565669;27;45209;-59
2022/10/09 06:41:24;;;;;;;0.43;0.13;;;18.30;51.20;20.50;94310.00;;;;10537793;27;45784;-59
2022/10/09 06:46:49;;;;;;;0.20;0.10;;;18.30;51.10;20.50;94304.00;;;;10586343;27;45409;-58
2022/10/09 06:52:10;;;;;;;1.23;0.30;;;18.30;51.10;20.50;94308.00;;;;10566921;27;45398;-59
2022/10/09 06:57:30;;;;;;;0.20;0.10;;;18.30;51.10;20.50;94308.00;;;;10510089;28;45123;-58
2022/10/09 07:02:52;;;;;;;0.43;0.17;;;18.30;51.10;20.50;94298.00;;;;10515529;28;45096;-57
2022/10/09 07:08:12;;;;;;;0.35;0.20;;;18.40;51.70;20.50;94311.00;;;;10515842;28;45166;-58
2022/10/09 07:13:33;;;;;;;0.85;0.28;;;18.30;51.10;20.40;94310.00;;;;10513975;28;45236;-59
2022/10/09 07:18:55;;;;;;;0.28;0.10;;;18.30;51.00;20.50;94302.00;;;;10515079;28;45442;-59
2022/10/09 07:24:19;;;;;;;0.28;0.20;;;18.30;51.00;20.40;94321.00;;;;10537986;27;45212;-59
2022/10/09 07:29:39;;;;;;;0.40;0.20;;;18.30;50.90;20.50;94314.00;;;;10515314;27;45210;-59
2022/10/09 07:35:01;;;;;;;1.10;0.20;;;18.30;51.00;20.50;94305.00;;;;10537957;27;45216;-60
2022/10/09 07:40:21;;;;;;;0.40;0.17;;;18.30;50.90;20.50;94314.00;;;;10500326;28;45132;-59
2022/10/09 07:45:42;;;;;;;2.03;0.40;;;18.30;50.90;20.50;94310.00;;;;10514808;27;45183;-59
2022/10/09 07:51:11;;;;;;;0.60;0.10;;;18.30;50.90;20.50;94312.00;;;;10523858;27;45288;-59
2022/10/09 07:56:34;;;;;;;1.38;0.30;;;18.30;50.80;20.40;94304.00;;;;10534543;27;45271;-60
2022/10/09 08:01:55;;;;;;;0.65;0.30;;;18.30;50.80;20.50;94311.00;;;;10522785;27;45252;-60
2022/10/09 08:07:17;;;;;;;0.63;0.20;;;18.30;50.80;20.50;94300.00;;;;10551543;27;45141;-60
2022/10/09 08:12:37;;;;;;;0.47;0.22;;;18.30;50.80;20.50;94305.00;;;;10523643;28;45189;-60
2022/10/09 08:17:58;;;;;;;0.40;0.30;;;18.30;50.70;20.50;94299.00;;;;10523752;28;45181;-60
2022/10/09 08:23:20;;;;;;;1.05;0.50;;;18.30;50.70;20.40;94312.00;;;;10523621;28;45312;-59
2022/10/09 08:28:42;;;;;;;0.88;0.38;;;18.30;50.70;20.50;94293.00;;;;10537084;27;45227;-59
2022/10/09 08:34:04;;;;;;;1.08;0.40;;;18.30;50.60;20.50;94295.00;;;;10523402;28;45121;-60
2022/10/09 08:39:29;;;;;;;1.05;0.30;;;18.30;50.50;20.50;94298.00;;;;10522296;28;45768;-59
2022/10/09 08:44:50;;;;;;;0.65;0.43;;;18.30;50.50;20.40;94289.00;;;;10522777;28;45265;-60
2022/10/09 08:50:16;;;;;;;1.42;0.43;;;18.30;50.50;20.50;94294.00;;;;10522457;28;45671;-60
2022/10/09 08:55:42;;;;;;;;;;;18.30;50.40;20.40;94284.00;;;;10523049;28;45193;-60
2022/10/09 09:01:12;;;;;;;0.30;0.22;;;18.30;50.50;20.40;94285.00;;;;10561398;27;45852;-60
2022/10/09 09:06:40;;;;;;;2.60;0.43;;;18.30;50.40;20.40;94299.00;;;;10564832;27;45690;-60
2022/10/09 09:12:11;;;;;;;0.32;0.20;;;18.30;50.40;20.40;94289.00;;;;10565298;27;45177;-60
2022/10/09 09:17:40;;;;;;;1.35;0.40;;;18.30;50.50;20.40;94276.00;;;;10565224;27;45177;-58
2022/10/09 09:23:02;;;;;;;1.00;0.32;;;18.30;50.50;20.40;94287.00;;;;10562726;27;45176;-59
2022/10/09 09:28:29;;;;;;;1.92;0.45;;;18.30;50.40;20.50;94272.00;;;;10554819;27;45662;-59
2022/10/09 09:33:58;;;;;;;1.02;0.32;;;18.30;50.40;20.50;94264.00;;;;10546691;27;45191;-60
2022/10/09 09:39:21;;;;;;;1.27;0.50;;;18.30;50.40;20.50;94266.00;;;;10496119;28;45295;-60
2022/10/09 09:44:49;;;;;;;1.10;0.30;;;18.40;50.50;20.50;94255.00;;;;10535219;27;45168;-57
2022/10/09 09:50:10;;;;;;;1.30;0.45;;;18.40;50.30;20.50;94270.00;;;;10553526;27;45167;-58
2022/10/09 09:55:32;;;;;;;0.50;0.35;;;18.40;50.30;20.50;94254.00;;;;10527869;27;45307;-59
2022/10/09 10:00:57;;;;;;;0.68;0.30;;;18.40;50.30;20.50;94265.00;;;;10505731;28;45323;-60
2022/10/09 10:06:23;;;;;;;0.98;0.40;;;18.40;50.20;20.50;94262.00;;;;10510068;28;45791;-59
2022/10/09 10:11:48;;;;;;;1.42;0.30;;;18.40;50.20;20.50;94261.00;;;;10510187;28;45142;-59
2022/10/09 10:17:27;;;;;;;6.40;0.60;;;18.40;50.20;20.50;94264.00;;;;10510657;28;45405;-59
2022/10/09 10:22:53;;;;;;;0.40;0.35;;;18.40;50.20;20.50;94247.00;;;;10509148;28;45181;-59
2022/10/09 10:28:22;;;;;;;3.90;0.45;;;18.40;50.20;20.50;94252.00;;;;10512265;27;45711;-60
2022/10/09 10:33:47;;;;;;;1.23;0.60;;;18.40;50.30;20.50;94248.00;;;;10513985;27;45717;-60
2022/10/09 10:39:15;;;;;;;0.60;0.40;;;18.40;50.30;20.50;94244.00;;;;10512059;27;45277;-60
2022/10/09 10:44:46;;;;;;;1.02;0.30;;;18.40;50.40;20.50;94253.00;;;;10512685;27;45345;-59
2022/10/09 10:50:14;;;;;;;1.13;0.40;;;18.40;50.40;20.50;94244.00;;;;10516475;27;45175;-59
2022/10/09 10:55:47;;;;;;;0.80;0.35;;;18.40;50.40;20.50;94228.00;;;;10515649;27;45228;-60
2022/10/09 11:01:21;;;;;;;0.50;0.30;;;18.40;50.40;20.50;94239.00;;;;10516584;28;45850;-60
2022/10/09 11:06:54;;;;;;;1.95;0.50;;;18.40;50.50;20.50;94239.00;;;;10515906;28;45100;-60
2022/10/09 11:12:25;;;;;;;0.95;0.40;;;18.40;50.50;20.50;94236.00;;;;10515550;28;45687;-60
2022/10/09 11:17:55;;;;;;;3.10;0.38;;;18.40;50.50;20.50;94214.00;;;;10515904;28;45090;-59
2022/10/09 11:23:32;;;;;;;1.25;0.47;;;18.40;50.50;20.50;94228.00;;;;10516111;27;45741;-60
2022/10/09 11:28:58;;;;;;;;;;;18.40;50.60;20.50;94221.00;;;;10514588;27;45150;-58
2022/10/09 11:34:28;;;;;;;1.08;0.40;;;18.40;50.60;20.50;94215.00;;;;10509972;27;45312;-59
2022/10/09 11:39:50;;;;;;;0.65;0.40;;;18.40;50.70;20.50;94215.00;;;;10509678;27;45302;-59
2022/10/09 11:45:23;;;;;;;0.70;0.32;;;18.40;50.80;20.50;94197.00;;;;10515329;27;45307;-60
2022/10/09 11:50:53;;;;;;;2.28;0.70;;;18.40;50.80;20.50;94207.00;;;;10520646;27;45812;-60
2022/10/09 11:56:24;;;;;;;1.25;0.40;;;18.40;50.80;20.50;94206.00;;;;10556888;27;45265;-59
2022/10/09 12:01:46;;;;;;;0.68;0.40;;;18.40;50.80;20.50;94203.00;;;;10556934;27;45168;-59
2022/10/09 12:07:08;;;;;;;0.63;0.40;;;18.40;50.90;20.50;94190.00;;;;10556532;27;45494;-59
2022/10/09 12:12:30;;;;;;;1.85;0.40;;;18.40;50.80;20.50;94176.00;;;;10540753;27;45286;-59
2022/10/09 12:17:51;;;;;;;1.02;0.47;;;18.40;50.80;20.50;94179.00;;;;10537628;27;45239;-59
2022/10/09 12:23:12;;;;;;;1.10;0.45;;;18.40;50.80;20.50;94166.00;;;;10553453;27;45235;-59
2022/10/09 12:28:39;;;;;;;1.08;0.40;;;18.40;50.80;20.50;94169.00;;;;10550924;27;45678;-59
2022/10/09 12:34:05;;;;;;;1.23;0.40;;;18.40;50.90;20.50;94158.00;;;;10556043;27;45953;-59
2022/10/09 12:39:27;;;;;;;0.93;0.38;;;18.40;50.90;20.60;94144.00;;;;10509127;27;45257;-59
2022/10/09 12:44:51;;;;;;;1.02;0.40;;;18.40;50.90;20.60;94139.00;;;;10533895;27;45812;-59
2022/10/09 12:50:24;;;;;;;2.15;0.50;;;18.40;51.00;20.60;94147.00;;;;10517798;27;45293;-58
2022/10/09 12:55:48;;;;;;;0.47;0.40;;;18.40;51.10;20.60;94134.00;;;;10512663;28;45110;-59
2022/10/09 13:01:14;;;;;;;2.22;0.47;;;18.50;51.10;20.60;94123.00;;;;10512033;28;46215;-60
2022/10/09 13:06:43;;;;;;;1.42;0.40;;;18.50;51.10;20.60;94134.00;;;;10518825;27;45198;-59
2022/10/09 13:12:09;;;;;;;0.60;0.43;;;18.50;51.20;20.60;94129.00;;;;10511339;28;45227;-58
2022/10/09 13:17:35;;;;;;;1.57;0.60;;;18.50;51.20;20.60;94125.00;;;;10540214;27;45331;-58
2022/10/09 13:22:59;;;;;;;1.27;0.50;;;18.50;51.30;20.60;94107.00;;;;10551243;27;45161;-58
2022/10/09 13:28:21;;;;;;;1.83;0.63;;;18.50;51.30;20.60;94115.00;;;;10512415;28;45255;-59
2022/10/09 13:33:43;;;;;;;1.17;0.40;;;18.50;51.30;20.60;94102.00;;;;10527771;27;45209;-59
2022/10/09 13:39:04;;;;;;;2.75;0.70;;;18.50;51.30;20.60;94092.00;;;;10506635;28;45211;-59
2022/10/09 13:44:25;;;;;;;1.40;0.47;;;18.50;51.30;20.60;94111.00;;;;10535703;27;45415;-59
2022/10/09 13:49:48;;;;;;;1.10;0.60;;;18.40;51.30;20.60;94108.00;;;;10524529;27;45672;-59
2022/10/09 13:55:09;;;;;;;0.65;0.40;;;18.50;51.40;20.60;94102.00;;;;10530452;27;45794;-58
2022/10/09 14:00:30;;;;;;;1.13;0.70;;;18.50;51.40;20.60;94096.00;;;;10557788;27;45255;-60
2022/10/09 14:05:58;;;;;;;0.82;0.50;;;18.50;51.40;20.60;94093.00;;;;10563387;27;45270;-59
2022/10/09 14:11:19;;;;;;;1.77;0.50;;;18.50;51.40;20.60;94096.00;;;;10562849;27;45252;-59
2022/10/09 14:16:40;;;;;;;1.45;0.50;;;18.50;51.40;20.60;94099.00;;;;10529120;27;45242;-59
2022/10/09 14:22:02;;;;;;;2.28;0.50;;;18.50;51.40;20.60;94103.00;;;;10524521;28;45217;-59
2022/10/09 14:27:22;;;;;;;3.05;0.55;;;18.50;51.60;20.60;94083.00;;;;10526026;28;45144;-60
2022/10/09 14:32:43;;;;;;;1.38;0.52;;;18.50;51.60;20.60;94089.00;;;;10525751;28;45198;-59
2022/10/09 14:38:05;;;;;;;0.45;0.40;;;18.50;51.70;20.60;94085.00;;;;10517088;27;45691;-59
2022/10/09 14:43:26;;;;;;;1.17;0.50;;;18.40;51.70;20.60;94085.00;;;;10540463;27;45242;-60
2022/10/09 14:48:48;;;;;;;0.90;0.43;;;18.50;51.90;20.60;94085.00;;;;10515037;28;45188;-57
2022/10/09 14:54:11;;;;;;;1.85;0.52;;;18.50;51.90;20.60;94066.00;;;;10544683;27;45251;-60
2022/10/09 14:59:32;;;;;;;1.20;0.55;;;18.50;52.00;20.60;94079.00;;;;10559123;27;45218;-59
2022/10/09 15:04:53;;;;;;;1.02;0.50;;;18.50;52.10;20.60;94074.00;;;;10558644;27;45367;-60
2022/10/09 15:10:16;;;;;;;1.38;0.45;;;18.50;52.20;20.60;94077.00;;;;10558484;27;45168;-57
2022/10/09 15:15:36;;;;;;;1.80;0.40;;;18.50;52.30;20.60;94073.00;;;;10537108;27;45235;-57
2022/10/09 15:20:58;;;;;;;0.43;0.40;;;18.50;52.40;20.60;94074.00;;;;10558454;27;45139;-59
2022/10/09 15:26:20;;;;;;;1.92;0.63;;;18.40;52.50;20.50;94061.00;;;;10557985;27;45788;-56
2022/10/09 15:31:41;;;;;;;1.67;0.75;;;18.50;52.60;20.60;94055.00;;;;10534472;27;45306;-58
2022/10/09 15:37:02;;;;;;;0.95;0.60;;;18.50;52.60;20.60;94045.00;;;;10514151;28;45248;-59
2022/10/09 15:42:24;;;;;;;0.40;0.30;;;18.50;52.70;20.60;94049.00;;;;10519058;27;45289;-59
2022/10/09 15:47:45;;;;;;;1.20;0.40;;;18.50;52.70;20.60;94053.00;;;;10557020;27;45176;-58
2022/10/09 15:53:09;;;;;;;0.60;0.40;;;18.50;52.80;20.60;94052.00;;;;10511935;27;45792;-57
2022/10/09 15:58:31;;;;;;;0.68;0.63;;;18.50;52.90;20.60;94034.00;;;;10546994;27;45262;-60
2022/10/09 16:03:52;;;;;;;0.85;0.40;;;18.50;52.80;20.60;94033.00;;;;10556778;27;45117;-59
2022/10/09 16:09:13;;;;;;;0.70;0.35;;;18.50;53.00;20.60;94023.00;;;;10552327;27;45416;-58
2022/10/09 16:14:37;;;;;;;1.85;0.50;;;18.50;52.90;20.60;94017.00;;;;10533839;27;45295;-58
2022/10/09 16:19:59;;;;;;;0.40;0.30;;;18.50;52.80;20.60;94031.00;;;;10505895;28;45167;-59
2022/10/09 16:25:19;;;;;;;1.20;0.38;;;18.50;52.90;20.60;94013.00;;;;10508400;27;45912;-58
2022/10/09 16:30:44;;;;;;;1.20;0.47;;;18.50;53.00;20.60;94021.00;;;;10520716;27;45256;-59
2022/10/09 16:36:10;;;;;;;0.70;0.40;;;18.50;53.00;20.60;94029.00;;;;10508798;27;45159;-57
2022/10/09 16:41:31;;;;;;;0.50;0.40;;;18.50;53.00;20.60;94038.00;;;;10509593;27;45777;-57
2022/10/09 16:46:53;;;;;;;0.60;0.40;;;18.50;53.00;20.60;94022.00;;;;10512823;27;45229;-57
2022/10/09 16:52:13;;;;;;;1.30;0.55;;;18.50;53.00;20.60;94027.00;;;;10500096;28;45221;-60
2022/10/09 16:57:34;;;;;;;1.02;0.40;;;18.50;53.00;20.60;94017.00;;;;10513398;28;45097;-60
2022/10/09 17:02:57;;;;;;;0.68;0.40;;;18.50;53.10;20.60;94023.00;;;;10509958;28;45260;-59
2022/10/09 17:08:17;;;;;;;1.60;0.60;;;18.50;53.80;20.60;94031.00;;;;10507869;28;45869;-58
2022/10/09 17:13:39;;;;;;;0.85;0.40;;;18.50;53.10;20.60;94038.00;;;;10512637;28;45845;-57
2022/10/09 17:19:02;;;;;;;1.70;0.60;;;18.50;53.10;20.60;94034.00;;;;10509709;28;45293;-58
2022/10/09 17:24:22;;;;;;;0.70;0.60;;;18.50;53.10;20.60;94054.00;;;;10510307;28;45240;-57
2022/10/09 17:29:43;;;;;;;1.17;0.70;;;18.50;53.10;20.60;94048.00;;;;10506553;28;45208;-59
2022/10/09 17:35:07;;;;;;;1.00;0.55;;;18.50;53.10;20.60;94050.00;;;;10510565;28;45186;-58
2022/10/09 17:40:27;;;;;;;1.00;0.50;;;18.40;53.00;20.60;94041.00;;;;10498310;28;45267;-58
2022/10/09 17:45:50;;;;;;;1.08;0.73;;;18.50;53.10;20.60;94041.00;;;;10544996;27;45184;-58
2022/10/09 17:51:17;;;;;;;1.08;0.68;;;18.50;53.50;20.60;94048.00;;;;10535112;27;45226;-58
2022/10/09 17:56:38;;;;;;;0.93;0.63;;;18.50;53.20;20.60;94049.00;;;;10512593;27;45139;-58
2022/10/09 18:01:59;;;;;;;1.58;0.70;;;18.50;53.10;20.60;94054.00;;;;10552535;27;45899;-59
2022/10/09 18:07:21;;;;;;;1.48;0.75;;;18.50;53.10;20.60;94054.00;;;;10553639;27;45897;-58
2022/10/09 18:12:41;;;;;;;1.00;0.70;;;18.50;53.10;20.60;94043.00;;;;10550508;27;45873;-58
2022/10/09 18:18:02;;;;;;;1.13;0.57;;;18.50;53.10;20.60;94047.00;;;;10528005;27;45798;-58
2022/10/09 18:23:24;;;;;;;0.65;0.57;;;18.50;53.20;20.60;94062.00;;;;10552857;27;45658;-59
2022/10/09 18:28:45;;;;;;;0.73;0.60;;;18.50;53.20;20.60;94061.00;;;;10552345;27;45381;-59
2022/10/09 18:34:06;;;;;;;1.83;0.65;;;18.50;53.30;20.60;94050.00;;;;10561782;27;45229;-57
2022/10/09 18:39:28;;;;;;;1.00;0.73;;;18.50;53.30;20.60;94051.00;;;;10539001;27;45095;-57
2022/10/09 18:44:48;;;;;;;1.35;0.70;;;18.50;53.30;20.60;94039.00;;;;10517385;28;45148;-57
2022/10/09 18:50:12;;;;;;;1.00;0.63;;;18.40;53.20;20.60;94036.00;;;;10524201;28;45991;-58
2022/10/09 18:55:35;;;;;;;1.30;0.70;;;18.50;53.20;20.60;94039.00;;;;10537442;27;45192;-57
2022/10/09 19:00:55;;;;;;;0.50;0.40;;;18.50;53.30;20.60;94050.00;;;;10522993;28;45219;-58
2022/10/09 19:06:16;;;;;;;0.95;0.60;;;18.50;53.30;20.60;94046.00;;;;10537703;27;45148;-57
2022/10/09 19:11:39;;;;;;;1.25;0.70;;;18.50;53.20;20.60;94047.00;;;;10565969;27;45160;-58
2022/10/09 19:16:59;;;;;;;0.73;0.55;;;18.40;53.30;20.60;94040.00;;;;10565967;27;45315;-59
2022/10/09 19:22:20;;;;;;;0.90;0.50;;;18.40;53.20;20.60;94036.00;;;;10552883;27;45189;-58
2022/10/09 19:27:42;;;;;;;0.77;0.55;;;18.50;53.30;20.60;94036.00;;;;10523138;28;45769;-57
2022/10/09 19:33:02;;;;;;;0.55;0.40;;;18.50;53.30;20.60;94032.00;;;;10522984;28;45296;-58
2022/10/09 19:38:24;;;;;;;3.17;0.70;;;18.50;53.20;20.60;94033.00;;;;10523756;28;45807;-59
2022/10/09 19:43:46;;;;;;;1.05;0.70;;;18.40;53.20;20.60;94022.00;;;;10513817;27;45411;-59
2022/10/09 19:49:07;;;;;;;0.85;0.50;;;18.40;53.30;20.60;94030.00;;;;10538241;27;44900;-59
2022/10/09 19:54:28;;;;;;;1.00;0.63;;;18.50;53.30;20.60;94034.00;;;;10532548;27;45160;-57
2022/10/09 19:59:50;;;;;;;0.70;0.50;;;18.50;53.20;20.60;94012.00;;;;10478382;28;45788;-59
2022/10/09 20:05:10;;;;;;;1.00;0.50;;;18.50;53.30;20.60;94026.00;;;;10519096;27;45857;-58
2022/10/09 20:10:31;;;;;;;0.65;0.45;;;18.40;53.10;20.60;94022.00;;;;10566300;27;45267;-59
2022/10/09 20:15:53;;;;;;;0.90;0.60;;;18.40;53.10;20.60;94030.00;;;;10538891;27;45232;-59
2022/10/09 20:21:16;;;;;;;0.70;0.60;;;18.40;53.00;20.60;94019.00;;;;10538228;27;45398;-59
2022/10/09 20:26:37;;;;;;;1.00;0.50;;;18.40;53.00;20.60;94039.00;;;;10565065;27;45265;-59
2022/10/09 20:32:00;;;;;;;0.70;0.50;;;18.50;53.00;20.60;94030.00;;;;10565783;27;45803;-59
2022/10/09 20:37:21;;;;;;;0.63;0.40;;;18.40;52.90;20.60;94026.00;;;;10525768;27;45240;-59
2022/10/09 20:42:41;;;;;;;0.70;0.50;;;18.40;52.80;20.60;94028.00;;;;10492926;28;45481;-59
2022/10/09 20:48:03;;;;;;;1.15;0.50;;;18.40;52.80;20.60;94026.00;;;;10522819;28;45768;-58
2022/10/09 20:53:24;;;;;;;0.82;0.50;;;18.40;52.80;20.60;94031.00;;;;10540973;27;45191;-58
2022/10/09 20:58:45;;;;;;;0.77;0.50;;;18.40;52.80;20.60;94019.00;;;;10544084;27;45286;-59
2022/10/09 21:04:09;;;;;;;0.95;0.47;;;18.40;52.80;20.50;94029.00;;;;10535757;27;45167;-59
2022/10/09 21:09:29;;;;;;;0.70;0.45;;;18.40;52.70;20.60;94040.00;;;;10508808;27;45169;-58
2022/10/09 21:14:50;;;;;;;0.40;0.40;;;18.40;52.70;20.50;94035.00;;;;10521974;28;45163;-59
2022/10/09 21:20:11;;;;;;;0.52;0.40;;;18.40;52.70;20.50;94021.00;;;;10521183;28;45884;-57
2022/10/09 21:25:32;;;;;;;0.52;0.40;;;18.40;52.70;20.50;94035.00;;;;10520773;28;45220;-59
2022/10/09 21:30:53;;;;;;;0.77;0.47;;;18.40;52.70;20.50;94036.00;;;;10534063;27;45171;-59
2022/10/09 21:36:24;;;;;;;0.57;0.50;;;18.40;52.70;20.50;94049.00;;;;10529998;27;45273;-59
2022/10/09 21:41:44;;;;;;;0.35;0.30;;;18.40;52.70;20.50;94049.00;;;;10549340;27;45215;-59
2022/10/09 21:47:05;;;;;;;0.88;0.60;;;18.40;52.70;20.50;94046.00;;;;10560341;27;45146;-59
2022/10/09 21:52:27;;;;;;;1.98;0.52;;;18.40;52.70;20.50;94044.00;;;;10521143;28;45860;-59
2022/10/09 21:57:47;;;;;;;1.00;0.50;;;18.40;52.70;20.50;94043.00;;;;10479236;28;45514;-59
2022/10/09 22:03:08;;;;;;;0.80;0.52;;;18.30;52.60;20.50;94028.00;;;;10480439;28;45157;-59
2022/10/09 22:08:30;;;;;;;0.55;0.50;;;18.30;52.60;20.50;94039.00;;;;10526185;27;45691;-59
2022/10/09 22:13:50;;;;;;;0.80;0.43;;;18.30;52.60;20.50;94031.00;;;;10563211;27;45698;-59
2022/10/09 22:19:11;;;;;;;0.50;0.40;;;18.30;52.50;20.50;94027.00;;;;10535329;27;44888;-58
2022/10/09 22:24:33;;;;;;;0.40;0.35;;;18.30;52.60;20.50;94035.00;;;;10526603;28;45217;-57
2022/10/09 22:29:54;;;;;;;0.68;0.50;;;18.30;52.50;20.50;94034.00;;;;10536856;27;45228;-59
2022/10/09 22:35:15;;;;;;;0.47;0.38;;;18.30;52.50;20.50;94050.00;;;;10530647;27;45887;-59
2022/10/09 22:40:36;;;;;;;1.13;0.50;;;18.30;52.60;20.50;94036.00;;;;10530257;27;45243;-57
2022/10/09 22:45:57;;;;;;;0.30;0.30;;;18.30;52.50;20.40;94037.00;;;;10529975;27;45105;-59
2022/10/09 22:51:20;;;;;;;0.85;0.43;;;18.30;52.50;20.50;94041.00;;;;10566012;27;45172;-59
2022/10/09 22:56:45;;;;;;;0.52;0.38;;;18.30;52.50;20.50;94038.00;;;;10484793;28;45784;-59
2022/10/09 23:02:06;;;;;;;0.30;0.20;;;18.30;52.50;20.40;94019.00;;;;10484202;28;45271;-59
2022/10/09 23:07:27;;;;;;;0.75;0.30;;;18.30;52.50;20.40;94027.00;;;;10484610;28;45823;-59
2022/10/09 23:12:49;;;;;;;1.00;0.43;;;18.30;52.50;20.40;94029.00;;;;10483199;28;45140;-57
2022/10/09 23:18:09;;;;;;;0.57;0.50;;;18.30;52.50;20.40;94028.00;;;;10541976;27;45828;-58
2022/10/09 23:23:30;;;;;;;0.30;0.30;;;18.30;52.50;20.40;94036.00;;;;10524613;28;45055;-59
2022/10/09 23:28:54;;;;;;;0.70;0.47;;;18.30;52.40;20.40;94035.00;;;;10525877;28;45138;-58
2022/10/09 23:34:14;;;;;;;0.80;0.30;;;18.30;52.50;20.40;94019.00;;;;10525677;27;45153;-59
2022/10/09 23:39:35;;;;;;;0.43;0.30;;;18.30;52.40;20.40;94035.00;;;;10524899;28;45300;-59